createdAt,value
2023-04-18T00:00:39.792Z,4.27
2023-04-18T00:05:42.044Z,3.27
2023-04-18T00:10:43.611Z,4.43
2023-04-18T00:15:46.341Z,3.90
2023-04-18T00:20:47.922Z,4.33
2023-04-18T00:25:49.594Z,4.57
2023-04-18T00:30:51.266Z,4.07
2023-04-18T00:35:53.870Z,4.60
2023-04-18T00:40:55.427Z,4.63
2023-04-18T00:45:58.742Z,4.07
2023-04-18T00:51:00.673Z,3.60
2023-04-18T00:56:02.648Z,4.30
2023-04-18T01:01:05.670Z,4.20
2023-04-18T01:06:07.358Z,3.87
2023-04-18T01:11:09.888Z,3.80
2023-04-18T01:16:11.589Z,4.67
2023-04-18T01:21:14.656Z,4.17
2023-04-18T01:26:16.400Z,4.70
2023-04-18T01:31:17.957Z,4.07
2023-04-18T01:36:19.556Z,4.17
2023-04-18T01:41:21.193Z,4.17
2023-04-18T01:46:23.461Z,4.33
2023-04-18T01:51:26.406Z,4.40
2023-04-18T01:56:28.244Z,4.77
2023-04-18T02:01:32.593Z,5.10
2023-04-18T02:06:34.185Z,4.43
2023-04-18T02:11:35.725Z,4.60
2023-04-18T02:16:38.891Z,4.13
2023-04-18T02:21:41.865Z,4.43
2023-04-18T02:26:44.007Z,4.10
2023-04-18T02:31:45.642Z,4.93
2023-04-18T02:36:49.782Z,3.97
2023-04-18T02:41:51.404Z,4.30
2023-04-18T02:46:53.015Z,4.43
2023-04-18T02:51:55.956Z,4.67
2023-04-18T02:56:57.749Z,4.43
2023-04-18T03:02:06.162Z,4.37
2023-04-18T03:07:10.364Z,4.10
2023-04-18T03:12:13.770Z,4.00
2023-04-18T03:17:16.773Z,4.40
2023-04-18T03:22:22.884Z,3.97
2023-04-18T03:27:32.077Z,4.23
2023-04-18T03:32:35.165Z,4.67
2023-04-18T03:37:37.459Z,4.23
2023-04-18T03:42:39.760Z,4.30
2023-04-18T03:47:42.351Z,4.73
2023-04-18T03:52:44.003Z,4.57
2023-04-18T03:57:47.331Z,4.40
2023-04-18T04:02:56.584Z,4.23
2023-04-18T04:07:58.554Z,3.97
2023-04-18T04:13:00.222Z,4.40
2023-04-18T04:18:02.818Z,4.03
2023-04-18T04:23:06.986Z,4.50
2023-04-18T04:28:10.939Z,4.30
2023-04-18T04:33:25.549Z,4.83
2023-04-18T04:38:30.900Z,4.30
2023-04-18T04:43:36.524Z,4.60
2023-04-18T04:48:38.667Z,4.53
2023-04-18T04:53:40.336Z,4.40
2023-04-18T04:58:42.628Z,4.43
2023-04-18T05:03:52.802Z,4.30
2023-04-18T05:08:57.299Z,5.37
2023-04-18T05:13:59.626Z,4.33
2023-04-18T05:19:01.372Z,4.20
2023-04-18T05:24:03.021Z,4.70
2023-04-18T05:29:04.848Z,4.77
2023-04-18T05:34:06.432Z,4.83
2023-04-18T05:39:08.159Z,4.40
2023-04-18T05:44:09.892Z,4.80
2023-04-18T05:49:11.597Z,4.10
2023-04-18T05:54:13.470Z,5.27
2023-04-18T05:59:15.413Z,4.80
2023-04-18T06:04:17.492Z,4.30
2023-04-18T06:09:19.643Z,4.00
2023-04-18T06:14:21.226Z,4.33
2023-04-18T06:19:23.007Z,4.57
2023-04-18T06:24:27.987Z,4.67
2023-04-18T06:29:33.069Z,4.10
2023-04-18T06:34:34.789Z,4.33
2023-04-18T06:39:36.350Z,3.70
2023-04-18T06:44:37.942Z,3.43
2023-04-18T06:49:39.533Z,4.00
2023-04-18T06:54:42.357Z,4.20
2023-04-18T06:59:43.964Z,3.60
2023-04-18T07:04:46.026Z,3.50
2023-04-18T07:09:48.433Z,3.17
2023-04-18T07:14:50.668Z,3.67
2023-04-18T07:19:52.297Z,3.80
2023-04-18T07:24:53.972Z,3.50
2023-04-18T07:29:55.789Z,3.87
2023-04-18T07:34:57.621Z,3.50
2023-04-18T07:39:59.257Z,3.00
2023-04-18T07:45:00.883Z,3.87
2023-04-18T07:50:02.929Z,3.43
2023-04-18T07:55:04.848Z,3.50
2023-04-18T08:00:07.630Z,3.10
2023-04-18T08:05:14.374Z,2.87
2023-04-18T08:10:16.227Z,3.17
2023-04-18T08:15:17.887Z,2.80
2023-04-18T08:20:19.861Z,3.43
2023-04-18T08:25:21.604Z,3.27
2023-04-18T08:30:23.266Z,2.43
2023-04-18T08:35:25.224Z,3.17
2023-04-18T08:40:27.017Z,3.17
2023-04-18T08:45:28.897Z,3.00
2023-04-18T08:50:30.922Z,3.17
2023-04-18T08:55:33.605Z,3.37
2023-04-18T09:00:35.333Z,2.67
2023-04-18T09:05:43.447Z,2.90
2023-04-18T09:10:46.748Z,2.60
2023-04-18T09:15:56.098Z,2.67
2023-04-18T09:21:17.270Z,2.67
2023-04-18T09:26:33.931Z,2.73
2023-04-18T09:31:35.764Z,3.03
2023-04-18T09:36:38.593Z,2.70
2023-04-18T09:41:40.342Z,2.53
2023-04-18T09:46:47.411Z,2.67
2023-04-18T09:51:52.140Z,2.60
2023-04-18T09:56:55.311Z,2.40
2023-04-18T10:02:04.230Z,2.60
2023-04-18T10:07:05.903Z,2.20
2023-04-18T10:12:07.708Z,2.53
2023-04-18T10:17:10.946Z,2.77
2023-04-18T10:22:13.356Z,2.73
2023-04-18T10:27:16.692Z,2.50
2023-04-18T10:32:19.885Z,2.73
2023-04-18T10:37:21.687Z,2.50
2023-04-18T10:42:48.173Z,2.47
2023-04-18T10:47:50.308Z,2.20
2023-04-18T10:52:55.616Z,2.37
2023-04-18T10:57:58.576Z,2.13
2023-04-18T11:03:00.645Z,2.30
2023-04-18T11:08:02.464Z,2.37
2023-04-18T11:13:06.625Z,2.70
2023-04-18T11:18:09.340Z,2.70
2023-04-18T11:23:21.159Z,2.47
2023-04-18T11:28:24.848Z,2.87
2023-04-18T11:33:28.186Z,2.37
2023-04-18T11:38:30.914Z,2.57
2023-04-18T11:43:32.579Z,2.20
2023-04-18T11:48:37.659Z,2.60
2023-04-18T11:53:39.632Z,2.20
2023-04-18T11:58:42.863Z,2.13
2023-04-18T12:03:59.760Z,2.20
2023-04-18T12:09:01.553Z,2.03
2023-04-18T12:14:04.202Z,2.20
2023-04-18T12:19:06.246Z,2.20
2023-04-18T12:24:18.192Z,1.97
2023-04-18T12:29:19.803Z,2.40
2023-04-18T12:34:21.413Z,1.90
2023-04-18T12:39:22.960Z,1.93
2023-04-18T12:44:25.189Z,1.90
2023-04-18T12:49:27.011Z,1.90
2023-04-18T12:54:28.705Z,2.20
2023-04-18T12:59:30.925Z,2.40
2023-04-18T13:04:32.810Z,2.13
2023-04-18T13:09:34.949Z,1.90
2023-04-18T13:14:36.686Z,2.40
2023-04-18T13:19:38.235Z,2.60
2023-04-18T13:24:39.818Z,2.90
2023-04-18T13:29:42.507Z,2.47
2023-04-18T13:34:46.224Z,2.40
2023-04-18T13:39:47.997Z,2.07
2023-04-18T13:44:50.337Z,2.47
2023-04-18T13:49:51.992Z,2.37
2023-04-18T13:54:53.688Z,2.77
2023-04-18T13:59:55.549Z,2.73
2023-04-18T14:04:58.328Z,2.43
2023-04-18T14:10:02.208Z,2.70
2023-04-18T14:15:05.054Z,2.87
2023-04-18T14:20:07.401Z,2.50
2023-04-18T14:25:09.795Z,2.60
2023-04-18T14:30:12.001Z,2.43
2023-04-18T14:35:13.705Z,2.57
2023-04-18T14:40:15.281Z,2.73
2023-04-18T14:45:16.997Z,2.87
2023-04-18T14:50:18.676Z,2.50
2023-04-18T14:55:20.341Z,2.63
2023-04-18T15:00:22.565Z,2.90
2023-04-18T15:05:24.166Z,2.97
2023-04-18T15:10:25.704Z,2.40
2023-04-18T15:15:28.045Z,2.67
2023-04-18T15:20:30.684Z,2.67
2023-04-18T15:25:32.252Z,2.77
2023-04-18T15:30:33.828Z,2.80
2023-04-18T15:35:35.990Z,2.50
2023-04-18T15:40:38.146Z,2.50
2023-04-18T15:45:40.287Z,2.57
2023-04-18T15:50:42.711Z,2.10
2023-04-18T15:55:46.506Z,2.90
2023-04-18T16:00:50.009Z,2.77
2023-04-18T16:05:51.747Z,2.20
2023-04-18T16:10:53.352Z,2.23
2023-04-18T16:15:55.059Z,2.50
2023-04-18T16:20:56.872Z,2.20
2023-04-18T16:25:58.951Z,2.37
2023-04-18T16:31:00.725Z,2.13
2023-04-18T16:36:05.455Z,2.20
2023-04-18T16:41:07.046Z,2.17
2023-04-18T16:46:08.803Z,2.37
2023-04-18T16:51:10.545Z,2.37
2023-04-18T16:56:12.194Z,1.97
2023-04-18T17:01:14.017Z,2.13
2023-04-18T17:06:19.391Z,1.90
2023-04-18T17:11:21.214Z,2.00
2023-04-18T17:16:23.214Z,2.17
2023-04-18T17:21:26.042Z,2.07
2023-04-18T17:26:27.962Z,2.00
2023-04-18T17:31:30.889Z,1.93
2023-04-18T17:36:32.636Z,2.47
2023-04-18T17:41:38.229Z,2.20
2023-04-18T17:46:39.991Z,1.87
2023-04-18T17:51:41.634Z,1.77
2023-04-18T17:56:44.226Z,1.80
2023-04-18T18:01:46.099Z,2.30
2023-04-18T18:06:55.397Z,2.20
2023-04-18T18:11:56.999Z,2.20
2023-04-18T18:16:58.777Z,2.43
2023-04-18T18:22:00.514Z,2.20
2023-04-18T18:27:02.280Z,2.30
2023-04-18T18:32:03.856Z,2.20
2023-04-18T18:37:05.505Z,2.20
2023-04-18T18:42:07.164Z,2.30
2023-04-18T18:47:08.826Z,2.27
2023-04-18T18:52:10.384Z,2.03
2023-04-18T18:57:12.065Z,2.40
2023-04-18T19:02:13.718Z,2.57
2023-04-18T19:07:15.372Z,2.30
2023-04-18T19:12:16.938Z,2.10
2023-04-18T19:17:22.013Z,2.60
2023-04-18T19:22:23.625Z,2.30
2023-04-18T19:27:25.204Z,2.50
2023-04-18T19:32:26.977Z,2.13
2023-04-18T19:37:28.964Z,2.50
2023-04-18T19:42:30.769Z,2.30
2023-04-18T19:47:33.973Z,3.00
2023-04-18T19:52:35.602Z,2.50
2023-04-18T19:57:41.505Z,2.50
2023-04-18T20:02:43.361Z,1.90
2023-04-18T20:07:45.174Z,2.40
2023-04-18T20:12:48.877Z,2.20
2023-04-18T20:17:52.435Z,2.40
2023-04-18T20:22:54.096Z,2.57
2023-04-18T20:27:55.927Z,2.43
2023-04-18T20:32:57.517Z,2.40
2023-04-18T20:38:00.308Z,2.30
2023-04-18T20:43:03.378Z,2.80
2023-04-18T20:48:05.175Z,2.40
2023-04-18T20:53:06.718Z,2.30
2023-04-18T20:58:08.368Z,2.63
2023-04-18T21:03:14.630Z,2.70
2023-04-18T21:08:16.731Z,3.00
2023-04-18T21:13:18.271Z,2.70
2023-04-18T21:18:19.905Z,2.73
2023-04-18T21:23:23.579Z,2.83
2023-04-18T21:28:30.360Z,3.33
2023-04-18T21:33:32.256Z,2.60
2023-04-18T21:38:33.845Z,2.80
2023-04-18T21:43:35.470Z,2.93
2023-04-18T21:48:38.123Z,2.40
2023-04-18T21:53:39.942Z,3.23
2023-04-18T21:58:41.641Z,2.77
2023-04-18T22:03:43.508Z,2.97
2023-04-18T22:08:45.312Z,2.50
2023-04-18T22:13:47.406Z,2.50
2023-04-18T22:18:49.395Z,2.70
2023-04-18T22:23:51.343Z,2.50
2023-04-18T22:28:52.895Z,2.60
2023-04-18T22:33:54.463Z,2.40
2023-04-18T22:38:56.106Z,2.10
2023-04-18T22:43:57.680Z,2.00
2023-04-18T22:48:59.723Z,2.43
2023-04-18T22:54:01.255Z,2.33
2023-04-18T22:59:03.003Z,2.40
2023-04-18T23:04:05.095Z,2.13
2023-04-18T23:09:09.460Z,2.63
2023-04-18T23:14:11.224Z,2.43
2023-04-18T23:19:12.831Z,2.30
2023-04-18T23:24:14.605Z,2.10
2023-04-18T23:29:16.488Z,2.00
2023-04-18T23:34:18.253Z,1.97
2023-04-18T23:39:19.922Z,2.30
2023-04-18T23:44:21.699Z,1.87
2023-04-18T23:49:23.432Z,2.17
2023-04-18T23:54:25.004Z,2.47
2023-04-18T23:59:26.797Z,2.00
